Southwest Oregon Regional Airport
KOTH : rendu visible

Aérodrome :











RETROUVEZ-NOUS SUR...

 
LOGIN :

S'inscrire | Disclaimer

   EN    FR    IT 

 









Légende :    VFR   VFR Marginal   IFR   IFR Intensif   IFR Très Intensif
Visi : 
Plafond : 
>= 8 km
>= 3000ft
5 à 8 km
1000 à 3000 ft
1500m à 5 km
500 à 1000 ft
800 à 1500m
200 à 500 ft
< 800m
< 200 ft
Symboles :   Orages  Brouillard  Fortes neiges  Fortes précipitations  Vent > 20 kt






- Altitude de l'aérodrome : 17 ft
- Code IATA : OTH


KOTH - Southwest Oregon Regional

DERNIER METAR :
  • 290556Z AUTO 18006KT 10SM OVC024 10/08 A3004 RMK AO2 SLP170 T01000078 10133 20100 58005 $

METARs EXPIRÉS :
  • 290456Z AUTO 18005KT 10SM OVC018 11/08 A3004 RMK AO2 SLP173 T01060078 $
  • 290356Z AUTO 19007KT 10SM BKN018 OVC029 11/08 A3005 RMK AO2 SLP175 T01060078 $

TAF KOTH
Valide du 29 à 06h jusqu'au 30 à 06h UTC


290535Z 2906/3006 17008KT P6SM -SHRA BKN018 OVC040
FM291100 18008KT 5SM -RA BR BKN015 OVC020
FM291900 20009KT P6SM BKN020 BKN030
FM300000 21010KT P6SM BKN025 OVC035



MET'MAP, la Météo Aéronautique d'un coup d'oeil ! - Copyright ORBIFLY Décembre 2007 - Disclaimer

ORBIFLY MET'MAP TEAM :

Programmation & Développement : Alexandra Zaïnal
Sur une idée originale de : Baudouin d'Aumeries
Assistance à la programmation : Marc-Olivier Méhu
Soutien technique & logistique : Manuel Goepfert

Contact : metmap@orbifly.com




SOURCES & CREDITS :

   NOAA       Earth
Advisory